createdAt,value
2017-09-20T00:04:01.146Z,6.50
2017-09-20T00:09:02.989Z,6.50
2017-09-20T00:14:04.045Z,6.50
2017-09-20T00:19:05.106Z,6.30
2017-09-20T00:24:06.170Z,6.20
2017-09-20T00:29:07.216Z,6.10
2017-09-20T00:34:08.277Z,6.10
2017-09-20T00:39:09.378Z,5.90
2017-09-20T00:44:11.168Z,5.90
2017-09-20T00:49:12.252Z,5.90
2017-09-20T00:54:13.318Z,5.70
2017-09-20T00:59:18.177Z,5.90
2017-09-20T01:04:19.239Z,6.10
2017-09-20T01:09:20.296Z,6.20
2017-09-20T01:14:21.372Z,6.40
2017-09-20T01:19:22.443Z,6.40
2017-09-20T01:24:23.527Z,6.50
2017-09-20T01:29:24.619Z,6.70
2017-09-20T01:34:26.454Z,6.80
2017-09-20T01:39:27.527Z,6.80
2017-09-20T01:44:28.584Z,6.80
2017-09-20T01:49:29.624Z,6.80
2017-09-20T01:54:30.702Z,6.80
2017-09-20T01:59:31.819Z,6.80
2017-09-20T02:04:32.866Z,6.80
2017-09-20T02:09:33.969Z,6.70
2017-09-20T02:14:35.036Z,6.80
2017-09-20T02:19:36.102Z,6.90
2017-09-20T02:24:37.166Z,7.00
2017-09-20T02:29:38.253Z,7.00
2017-09-20T02:34:39.346Z,7.10
2017-09-20T02:39:41.153Z,7.10
2017-09-20T02:44:42.246Z,7.00
2017-09-20T02:49:43.334Z,7.10
2017-09-20T02:54:44.398Z,7.10
2017-09-20T02:59:45.474Z,7.10
2017-09-20T03:04:46.568Z,7.10
2017-09-20T03:09:47.661Z,7.20
2017-09-20T03:14:49.489Z,7.30
2017-09-20T03:19:50.561Z,7.30
2017-09-20T03:24:51.619Z,7.30
2017-09-20T03:29:52.687Z,7.40
2017-09-20T03:34:53.759Z,7.40
2017-09-20T03:39:54.831Z,7.30
2017-09-20T03:44:56.647Z,7.20
2017-09-20T03:49:57.710Z,7.20
2017-09-20T03:54:58.770Z,7.10
2017-09-20T03:59:59.882Z,7.10
2017-09-20T04:05:01.695Z,7.10
2017-09-20T04:10:02.788Z,7.10
2017-09-20T04:15:03.906Z,7.30
2017-09-20T04:20:04.986Z,7.40
2017-09-20T04:25:06.051Z,7.50
2017-09-20T04:30:07.138Z,7.60
2017-09-20T04:35:08.186Z,7.70
2017-09-20T04:40:09.258Z,7.80
2017-09-20T04:45:11.038Z,7.80
2017-09-20T04:50:12.837Z,7.80
2017-09-20T04:55:13.902Z,7.80
2017-09-20T05:00:14.998Z,7.80
2017-09-20T05:05:16.082Z,7.80
2017-09-20T05:10:17.901Z,7.90
2017-09-20T05:15:18.973Z,7.90
2017-09-20T05:20:20.047Z,7.90
2017-09-20T05:25:21.149Z,8.00
2017-09-20T05:30:22.978Z,8.10
2017-09-20T05:35:24.058Z,8.10
2017-09-20T05:40:25.134Z,8.20
2017-09-20T05:45:26.947Z,8.40
2017-09-20T05:50:28.040Z,8.40
2017-09-20T05:55:29.123Z,8.60
2017-09-20T06:00:30.956Z,8.90
2017-09-20T06:05:32.046Z,8.90
2017-09-20T06:10:33.121Z,9.00
2017-09-20T06:15:34.914Z,9.30
2017-09-20T06:20:35.984Z,9.30
2017-09-20T06:25:37.027Z,9.40
2017-09-20T06:30:38.106Z,9.50
2017-09-20T06:35:39.157Z,9.50
2017-09-20T06:40:40.205Z,9.60
2017-09-20T06:45:41.291Z,9.70
2017-09-20T06:50:42.985Z,9.80
2017-09-20T06:55:44.063Z,9.90
2017-09-20T07:00:45.170Z,10.10
2017-09-20T07:05:47.249Z,10.20
2017-09-20T07:10:48.339Z,10.40
2017-09-20T07:15:49.389Z,10.60
2017-09-20T07:20:50.466Z,10.60
2017-09-20T07:25:51.531Z,10.90
2017-09-20T07:30:52.598Z,11.00
2017-09-20T07:35:53.655Z,11.20
2017-09-20T07:40:55.485Z,11.80
2017-09-20T07:45:56.547Z,11.80
2017-09-20T07:50:57.621Z,12.30
2017-09-20T07:56:08.898Z,12.50
2017-09-20T08:01:09.962Z,13.00
2017-09-20T08:06:14.880Z,13.10
2017-09-20T08:11:15.950Z,12.90
2017-09-20T08:16:17.088Z,13.00
2017-09-20T08:21:18.171Z,13.20
2017-09-20T08:26:19.264Z,13.50
2017-09-20T08:31:20.358Z,13.50
2017-09-20T08:36:22.294Z,13.80
2017-09-20T08:41:23.377Z,13.70
2017-09-20T08:46:24.452Z,14.70
2017-09-20T08:51:29.832Z,14.60
2017-09-20T08:56:30.897Z,14.60
2017-09-20T09:01:31.982Z,14.40
2017-09-20T09:06:33.045Z,14.60
2017-09-20T09:11:34.185Z,14.60
2017-09-20T09:16:35.274Z,15.20
2017-09-20T09:21:36.510Z,15.60
2017-09-20T09:26:37.565Z,15.60
2017-09-20T09:31:38.621Z,15.30
2017-09-20T09:36:39.690Z,15.30
2017-09-20T09:41:40.748Z,15.30
2017-09-20T09:46:41.819Z,16.60
2017-09-20T09:51:42.865Z,16.60
2017-09-20T09:56:44.902Z,17.00
2017-09-20T10:01:52.810Z,17.00
2017-09-20T10:06:54.619Z,17.30
2017-09-20T10:11:55.721Z,17.30
2017-09-20T10:16:56.781Z,17.90
2017-09-20T10:21:57.882Z,19.50
2017-09-20T10:26:58.947Z,19.60
2017-09-20T10:32:00.217Z,19.80
2017-09-20T10:37:01.314Z,18.60
2017-09-20T10:42:02.423Z,17.80
2017-09-20T10:47:03.489Z,17.60
2017-09-20T10:52:04.605Z,18.60
2017-09-20T10:57:05.667Z,17.70
2017-09-20T11:02:06.728Z,18.80
2017-09-20T11:07:07.802Z,19.10
2017-09-20T11:12:08.875Z,18.50
2017-09-20T11:17:09.910Z,18.40
2017-09-20T11:22:11.690Z,19.90
2017-09-20T11:27:16.622Z,21.10
2017-09-20T11:32:17.678Z,21.00
2017-09-20T11:37:18.745Z,21.30
2017-09-20T11:42:20.574Z,18.90
2017-09-20T11:47:21.665Z,18.90
2017-09-20T11:52:22.725Z,18.40
2017-09-20T11:57:23.818Z,18.00
2017-09-20T12:02:24.874Z,19.30
2017-09-20T12:07:25.943Z,19.40
2017-09-20T12:12:27.019Z,20.30
2017-09-20T12:17:28.088Z,19.50
2017-09-20T12:22:29.142Z,19.20
2017-09-20T12:27:30.220Z,18.40
2017-09-20T12:32:31.293Z,19.10
2017-09-20T12:37:32.375Z,18.70
2017-09-20T12:42:34.157Z,18.20
2017-09-20T12:47:35.226Z,18.20
2017-09-20T12:52:36.299Z,17.90
2017-09-20T12:57:37.394Z,18.10
2017-09-20T13:02:38.498Z,17.90
2017-09-20T13:07:39.557Z,19.00
2017-09-20T13:12:40.605Z,19.50
2017-09-20T13:17:41.653Z,19.30
2017-09-20T13:22:43.454Z,18.20
2017-09-20T13:27:44.502Z,18.20
2017-09-20T13:32:45.567Z,18.10
2017-09-20T13:37:46.645Z,17.40
2017-09-20T13:42:54.554Z,16.60
2017-09-20T13:47:55.625Z,16.40
2017-09-20T13:52:58.667Z,16.20
2017-09-20T13:57:59.804Z,16.20
2017-09-20T14:03:01.878Z,16.00
2017-09-20T14:08:02.966Z,16.10
2017-09-20T14:13:09.179Z,15.80
2017-09-20T14:18:14.010Z,15.40
2017-09-20T14:23:17.803Z,14.90
2017-09-20T14:28:18.901Z,14.90
2017-09-20T14:33:24.707Z,14.90
2017-09-20T14:38:26.578Z,14.90
2017-09-20T14:43:27.662Z,14.90
2017-09-20T14:48:28.732Z,14.60
2017-09-20T14:53:31.794Z,14.60
2017-09-20T14:58:32.855Z,14.80
2017-09-20T15:03:33.935Z,16.00
2017-09-20T15:08:36.982Z,17.40
2017-09-20T15:13:38.042Z,17.50
2017-09-20T15:18:39.858Z,18.60
2017-09-20T15:23:40.936Z,18.60
2017-09-20T15:28:41.990Z,17.70
2017-09-20T15:33:43.042Z,17.60
2017-09-20T15:38:44.092Z,17.60
2017-09-20T15:43:48.441Z,17.10
2017-09-20T15:48:49.492Z,16.20
2017-09-20T15:53:57.064Z,16.20
2017-09-20T15:59:03.265Z,16.00
2017-09-20T16:04:04.324Z,15.80
2017-09-20T16:09:05.414Z,15.60
2017-09-20T16:14:07.238Z,15.30
2017-09-20T16:19:08.294Z,15.20
2017-09-20T16:24:09.390Z,14.90
2017-09-20T16:29:10.609Z,14.60
2017-09-20T16:34:18.646Z,14.10
2017-09-20T16:39:20.690Z,14.10
2017-09-20T16:44:21.771Z,14.00
2017-09-20T16:49:26.091Z,13.70
2017-09-20T16:54:31.058Z,13.50
2017-09-20T16:59:33.130Z,13.50
2017-09-20T17:04:34.926Z,13.10
2017-09-20T17:09:35.983Z,13.10
2017-09-20T17:14:44.450Z,13.00
2017-09-20T17:19:45.492Z,13.00
2017-09-20T17:24:46.542Z,12.80
2017-09-20T17:29:47.620Z,12.80
2017-09-20T17:34:48.686Z,12.60
2017-09-20T17:39:49.746Z,12.50
2017-09-20T17:44:50.789Z,12.40
2017-09-20T17:49:51.822Z,12.30
2017-09-20T17:54:52.930Z,12.10
2017-09-20T17:59:54.025Z,12.00
2017-09-20T18:04:55.080Z,12.00
2017-09-20T18:09:56.857Z,11.70
2017-09-20T18:14:57.927Z,11.70
2017-09-20T18:19:58.981Z,11.50
2017-09-20T18:25:00.030Z,11.30
2017-09-20T18:30:01.081Z,11.20
2017-09-20T18:35:02.893Z,11.00
2017-09-20T18:40:03.947Z,11.00
2017-09-20T18:45:05.009Z,10.90
2017-09-20T18:50:06.131Z,10.80
2017-09-20T18:55:07.959Z,10.70
2017-09-20T19:00:09.027Z,10.60
2017-09-20T19:05:10.070Z,10.60
2017-09-20T19:10:11.151Z,10.60
2017-09-20T19:15:12.278Z,10.60
2017-09-20T19:20:13.404Z,10.50
2017-09-20T19:25:15.190Z,10.50
2017-09-20T19:30:16.256Z,10.40
2017-09-20T19:35:17.295Z,10.40
2017-09-20T19:40:19.084Z,10.20
2017-09-20T19:45:20.149Z,10.20
2017-09-20T19:50:21.206Z,10.30
2017-09-20T19:55:22.261Z,10.30
2017-09-20T20:00:23.392Z,10.20
2017-09-20T20:05:28.195Z,10.20
2017-09-20T20:10:29.445Z,10.20
2017-09-20T20:15:30.697Z,10.20
2017-09-20T20:20:31.965Z,10.20
2017-09-20T20:25:33.254Z,10.20
2017-09-20T20:30:38.393Z,10.20
2017-09-20T20:35:39.514Z,10.20
2017-09-20T20:40:41.409Z,10.20
2017-09-20T20:45:42.561Z,10.20
2017-09-20T20:50:44.413Z,10.10
2017-09-20T20:55:45.665Z,10.10
2017-09-20T21:00:46.786Z,10.20
2017-09-20T21:05:47.880Z,10.20
2017-09-20T21:10:49.003Z,10.20
2017-09-20T21:15:50.133Z,10.20
2017-09-20T21:20:51.192Z,10.10
2017-09-20T21:25:52.253Z,10.10
2017-09-20T21:30:56.742Z,10.10
2017-09-20T21:35:57.849Z,10.10
2017-09-20T21:40:58.927Z,10.00
2017-09-20T21:46:00.010Z,10.00
2017-09-20T21:51:01.071Z,10.00
2017-09-20T21:56:02.155Z,10.00
2017-09-20T22:01:03.209Z,10.00
2017-09-20T22:06:04.267Z,9.90
2017-09-20T22:11:05.334Z,10.00
2017-09-20T22:16:19.429Z,10.10
2017-09-20T22:21:32.843Z,10.10
2017-09-20T22:26:43.098Z,10.00
2017-09-20T22:31:44.146Z,10.00
2017-09-20T22:36:45.198Z,10.00
2017-09-20T22:41:46.238Z,10.00
2017-09-20T22:46:47.310Z,10.00
2017-09-20T22:51:48.389Z,10.00
2017-09-20T22:56:49.445Z,10.00
2017-09-20T23:01:50.535Z,10.00
2017-09-20T23:06:52.364Z,10.00
2017-09-20T23:11:53.438Z,10.00
2017-09-20T23:16:54.505Z,10.00
2017-09-20T23:21:55.559Z,10.00
2017-09-20T23:26:57.199Z,10.00
2017-09-20T23:31:58.264Z,9.90
2017-09-20T23:36:59.335Z,9.90
2017-09-20T23:42:00.446Z,9.80
2017-09-20T23:47:02.214Z,9.80
2017-09-20T23:52:04.030Z,9.80
2017-09-20T23:57:05.085Z,9.80
